Time;durP1;ratioP1;P1;durP2;ratioP2;P2;SDS_P1;SDS_P2;PMS_P1;PMS_P2;Temp;Humidity;BMP_temperature;BMP_pressure;BME280_temperature;BME280_humidity;BME280_pressure;Samples;Min_cycle;Max_cycle;Signal;HPM_P1;HPM_P2
2023/05/02 00:01:19;;;;;;;20.77;12.87;;;12.10;99.90;;;;;;5054772;28;20289;-60
2023/05/02 00:03:47;;;;;;;19.10;12.97;;;12.10;99.90;;;;;;5072349;28;20219;-60
2023/05/02 00:06:14;;;;;;;20.57;11.53;;;11.90;99.90;;;;;;5073401;28;20215;-60
2023/05/02 00:08:41;;;;;;;22.33;12.33;;;11.90;99.90;;;;;;5071994;28;20587;-60
2023/05/02 00:11:08;;;;;;;20.00;12.50;;;11.80;99.90;;;;;;5056257;28;20350;-60
2023/05/02 00:13:34;;;;;;;21.77;12.07;;;11.80;99.90;;;;;;5072654;28;20245;-59
2023/05/02 00:16:01;;;;;;;21.53;12.87;;;11.80;99.90;;;;;;5053757;28;20289;-60
2023/05/02 00:18:29;;;;;;;18.53;12.70;;;11.90;99.90;;;;;;5071551;28;20243;-60
2023/05/02 00:20:55;;;;;;;18.43;10.70;;;12.00;99.90;;;;;;5074054;28;20710;-62
2023/05/02 00:23:23;;;;;;;20.17;11.43;;;11.90;99.90;;;;;;5069209;28;20198;-59
2023/05/02 00:25:50;;;;;;;18.70;10.60;;;11.80;99.90;;;;;;5071967;28;20210;-60
2023/05/02 00:28:17;;;;;;;14.93;9.40;;;11.80;99.90;;;;;;5060471;28;20284;-59
2023/05/02 00:30:45;;;;;;;14.70;9.00;;;11.80;99.90;;;;;;5074125;28;20282;-60
2023/05/02 00:33:13;;;;;;;15.27;8.50;;;11.80;99.90;;;;;;5073947;28;20708;-60
2023/05/02 00:35:41;;;;;;;15.07;9.00;;;11.70;99.90;;;;;;5074051;28;20207;-60
2023/05/02 00:38:08;;;;;;;13.87;8.27;;;11.80;99.90;;;;;;5056865;28;20229;-60
2023/05/02 00:40:52;;;;;;;13.93;7.97;;;11.60;99.90;;;;;;5074973;28;20200;-59
2023/05/02 00:43:20;;;;;;;16.43;7.70;;;11.60;99.90;;;;;;5073759;28;20218;-60
2023/05/02 00:45:47;;;;;;;11.63;7.63;;;11.60;99.90;;;;;;5073499;28;20221;-59
2023/05/02 00:48:16;;;;;;;13.37;7.97;;;11.50;99.90;;;;;;5077006;28;20211;-60
2023/05/02 00:50:45;;;;;;;11.47;7.87;;;11.50;99.90;;;;;;5075793;28;20201;-59
2023/05/02 00:53:12;;;;;;;11.73;7.30;;;11.60;99.90;;;;;;5060998;28;20206;-59
2023/05/02 00:55:39;;;;;;;11.57;7.13;;;11.70;99.90;;;;;;5058179;28;20306;-62
2023/05/02 00:58:12;;;;;;;14.37;7.80;;;11.70;99.90;;;;;;5061884;28;20707;-59
2023/05/02 01:00:48;;;;;;;11.47;7.13;;;11.80;99.90;;;;;;5076703;28;20212;-59
2023/05/02 01:03:28;;;;;;;14.57;8.20;;;11.90;99.90;;;;;;5075243;28;20673;-60
2023/05/02 01:06:19;;;;;;;14.57;8.00;;;11.90;99.90;;;;;;5061202;28;20207;-60
2023/05/02 01:08:53;;;;;;;14.00;8.00;;;11.90;99.90;;;;;;5055975;28;20394;-60
2023/05/02 01:11:50;;;;;;;12.30;8.70;;;12.00;99.90;;;;;;5065902;28;20253;-60
2023/05/02 01:14:20;;;;;;;11.93;8.00;;;11.90;99.90;;;;;;5078263;28;20195;-60
2023/05/02 01:16:48;;;;;;;11.83;7.53;;;12.00;99.90;;;;;;5076770;28;20294;-60
2023/05/02 01:19:28;;;;;;;12.47;8.13;;;12.00;99.90;;;;;;5075651;28;20235;-60
2023/05/02 01:21:57;;;;;;;10.97;7.50;;;12.00;99.90;;;;;;5078681;28;20285;-60
2023/05/02 01:24:31;;;;;;;15.47;7.67;;;12.00;99.90;;;;;;5075128;28;20312;-60
2023/05/02 01:27:04;;;;;;;12.20;7.53;;;12.00;99.90;;;;;;5077544;28;20250;-63
2023/05/02 01:29:31;;;;;;;14.07;8.97;;;12.00;99.90;;;;;;5075664;28;20291;-60
2023/05/02 01:32:01;;;;;;;14.87;8.70;;;11.90;99.90;;;;;;5074739;28;20919;-60
2023/05/02 01:34:30;;;;;;;13.23;8.90;;;11.90;99.90;;;;;;5076433;28;20610;-61
2023/05/02 01:36:58;;;;;;;12.67;8.83;;;11.80;99.90;;;;;;5078717;28;20654;-60
2023/05/02 01:39:26;;;;;;;15.27;9.37;;;11.90;99.90;;;;;;5076831;28;20203;-60
2023/05/02 01:41:56;;;;;;;15.97;9.80;;;12.00;99.90;;;;;;5065027;28;20202;-60
2023/05/02 01:44:24;;;;;;;16.03;10.57;;;11.80;99.90;;;;;;5078113;28;20238;-60
2023/05/02 01:46:53;;;;;;;17.43;10.30;;;11.90;99.90;;;;;;5061988;28;20299;-60
2023/05/02 01:49:23;;;;;;;14.43;9.80;;;11.80;99.90;;;;;;5075083;28;20198;-59
2023/05/02 01:51:51;;;;;;;16.17;9.63;;;11.80;99.90;;;;;;5076833;28;20199;-59
2023/05/02 01:54:21;;;;;;;15.67;9.60;;;11.90;99.90;;;;;;5073037;28;21342;-59
2023/05/02 01:56:51;;;;;;;15.17;10.63;;;11.80;99.90;;;;;;5072106;28;20546;-59
2023/05/02 01:59:20;;;;;;;17.33;10.63;;;11.80;99.90;;;;;;5054122;28;20206;-60
2023/05/02 02:01:49;;;;;;;17.20;10.13;;;11.80;99.90;;;;;;5073711;28;20207;-64
2023/05/02 02:04:18;;;;;;;16.57;11.40;;;11.60;99.90;;;;;;5070944;28;20201;-60
2023/05/02 02:06:49;;;;;;;14.40;10.20;;;11.80;99.90;;;;;;5056270;28;20300;-59
2023/05/02 02:09:16;;;;;;;14.47;9.87;;;11.80;99.90;;;;;;5075626;28;20726;-59
2023/05/02 02:11:51;;;;;;;14.17;9.83;;;11.90;99.90;;;;;;5056633;28;20725;-59
2023/05/02 02:14:20;;;;;;;13.57;9.13;;;11.90;99.90;;;;;;5075764;28;20774;-60
2023/05/02 02:16:49;;;;;;;13.17;9.43;;;11.70;99.90;;;;;;5073654;28;21315;-61
2023/05/02 02:19:17;;;;;;;13.17;9.23;;;11.70;99.90;;;;;;5075879;28;20309;-59
2023/05/02 02:21:47;;;;;;;13.33;8.97;;;11.70;99.90;;;;;;5074414;28;20630;-58
2023/05/02 02:24:21;;;;;;;15.50;9.67;;;11.70;99.90;;;;;;5075990;28;20209;-62
2023/05/02 02:26:48;;;;;;;15.93;9.90;;;11.70;99.90;;;;;;5055042;28;20241;-63
2023/05/02 02:29:15;;;;;;;17.80;10.30;;;11.80;99.90;;;;;;5075351;28;20202;-64
2023/05/02 02:31:42;;;;;;;15.27;10.17;;;11.90;99.90;;;;;;5057191;28;20241;-63
2023/05/02 02:34:10;;;;;;;20.47;10.57;;;11.90;99.90;;;;;;5054004;28;20207;-64
2023/05/02 02:36:46;;;;;;;15.50;10.83;;;11.90;99.90;;;;;;5075489;28;20603;-63
2023/05/02 02:39:43;;;;;;;15.30;11.00;;;11.90;99.90;;;;;;5058680;28;20198;-63
2023/05/02 02:42:44;;;;;;;17.73;10.83;;;11.80;99.90;;;;;;5075738;28;20261;-64
2023/05/02 02:46:04;;;;;;;14.57;10.57;;;11.70;99.90;;;;;;5075848;28;20228;-63
2023/05/02 02:48:42;;;;;;;14.20;9.73;;;11.70;99.90;;;;;;5012812;28;20204;-63
2023/05/02 02:51:24;;;;;;;14.97;10.70;;;11.90;99.90;;;;;;5077538;28;20286;-61
2023/05/02 02:54:19;;;;;;;16.50;10.40;;;11.90;99.90;;;;;;5074117;28;20289;-61
2023/05/02 02:57:12;;;;;;;14.90;9.40;;;11.80;99.90;;;;;;5076543;28;20242;-63
2023/05/02 02:59:46;;;;;;;13.60;10.00;;;11.80;99.90;;;;;;5074963;28;20198;-63
2023/05/02 03:02:17;;;;;;;15.83;8.40;;;11.80;99.90;;;;;;5073838;28;20207;-63
2023/05/02 03:04:47;;;;;;;11.33;8.13;;;11.80;99.90;;;;;;5073670;28;20207;-63
2023/05/02 03:07:14;;;;;;;13.67;7.57;;;11.70;99.90;;;;;;5076242;28;20653;-63
2023/05/02 03:09:45;;;;;;;12.77;7.30;;;11.70;99.90;;;;;;5076526;28;20659;-63
2023/05/02 03:12:13;;;;;;;14.50;6.47;;;11.70;99.90;;;;;;5049620;28;20257;-63
2023/05/02 03:14:40;;;;;;;10.43;5.60;;;11.70;99.90;;;;;;5055329;28;20271;-63
2023/05/02 03:17:07;;;;;;;12.43;5.37;;;11.60;99.90;;;;;;5054001;28;20232;-63
2023/05/02 03:19:34;;;;;;;9.70;5.50;;;11.70;99.90;;;;;;5051160;28;20329;-63
2023/05/02 03:22:01;;;;;;;8.93;4.67;;;11.80;99.90;;;;;;5055498;28;20218;-61
2023/05/02 03:24:28;;;;;;;10.07;4.77;;;11.70;99.90;;;;;;5055352;28;20200;-63
2023/05/02 03:26:56;;;;;;;9.47;4.13;;;11.80;99.90;;;;;;5055080;28;20239;-61
2023/05/02 03:29:23;;;;;;;9.13;4.00;;;11.80;99.90;;;;;;5056111;28;20230;-61
2023/05/02 03:31:50;;;;;;;7.13;3.63;;;12.00;99.90;;;;;;5052163;28;20211;-61
2023/05/02 03:34:18;;;;;;;7.63;4.00;;;12.00;99.90;;;;;;5065556;28;20208;-61
2023/05/02 03:36:45;;;;;;;5.83;3.60;;;11.90;99.90;;;;;;5051300;28;20291;-61
2023/05/02 03:39:12;;;;;;;6.77;3.47;;;11.90;99.90;;;;;;5052394;28;20217;-61
2023/05/02 03:41:39;;;;;;;8.50;3.43;;;11.80;99.90;;;;;;5057661;28;20199;-61
2023/05/02 03:44:06;;;;;;;7.97;3.10;;;11.70;99.90;;;;;;5056438;28;20297;-63
2023/05/02 03:46:32;;;;;;;7.33;3.40;;;11.50;99.90;;;;;;5058567;28;20307;-61
2023/05/02 03:48:59;;;;;;;9.80;3.37;;;11.60;99.90;;;;;;5052098;28;20203;-61
2023/05/02 03:51:26;;;;;;;5.03;2.77;;;11.40;99.90;;;;;;5053674;28;20233;-62
2023/05/02 03:53:53;;;;;;;5.33;2.30;;;11.40;99.90;;;;;;5052778;28;20284;-62
2023/05/02 03:56:20;;;;;;;4.07;2.00;;;11.30;99.90;;;;;;5056525;28;21050;-61
2023/05/02 03:58:48;;;;;;;3.27;1.80;;;11.20;99.90;;;;;;5054217;28;20561;-62
2023/05/02 04:01:15;;;;;;;9.03;1.90;;;11.00;99.90;;;;;;5054559;28;20203;-61
2023/05/02 04:03:43;;;;;;;3.77;1.43;;;11.00;99.90;;;;;;5050800;28;20219;-62
2023/05/02 04:06:11;;;;;;;4.73;1.43;;;11.10;99.90;;;;;;5053684;28;20264;-61
2023/05/02 04:08:39;;;;;;;5.33;1.30;;;11.00;99.90;;;;;;5054544;28;20211;-61
2023/05/02 04:11:06;;;;;;;6.13;1.53;;;11.00;99.90;;;;;;5051426;28;20569;-61
2023/05/02 04:13:33;;;;;;;2.40;1.93;;;11.10;99.90;;;;;;5071184;28;20751;-61
2023/05/02 04:15:59;;;;;;;3.77;1.67;;;11.10;99.90;;;;;;5074282;28;20205;-61
2023/05/02 04:18:26;;;;;;;9.77;1.43;;;11.00;99.90;;;;;;5074727;28;21021;-61
2023/05/02 04:20:53;;;;;;;2.47;1.50;;;10.90;99.90;;;;;;5072775;28;20561;-61
2023/05/02 04:23:20;;;;;;;3.57;1.43;;;10.90;99.90;;;;;;5073939;28;20927;-61
2023/05/02 04:25:55;;;;;;;5.77;1.13;;;10.90;99.90;;;;;;5074276;28;20393;-62
2023/05/02 04:28:22;;;;;;;4.10;1.50;;;11.10;99.90;;;;;;5073808;28;20702;-61
2023/05/02 04:30:49;;;;;;;2.17;1.40;;;11.00;99.90;;;;;;5076411;28;20206;-62
2023/05/02 04:33:20;;;;;;;3.57;1.60;;;11.00;99.90;;;;;;5056470;28;20638;-61
2023/05/02 04:35:47;;;;;;;1.93;1.20;;;11.00;99.90;;;;;;5077243;28;20206;-61
2023/05/02 04:38:14;;;;;;;5.70;1.40;;;11.00;99.90;;;;;;5074759;28;20215;-62
2023/05/02 04:40:41;;;;;;;3.30;1.40;;;10.90;99.90;;;;;;5062921;28;20210;-62
2023/05/02 04:43:08;;;;;;;5.77;1.40;;;11.00;99.90;;;;;;5073488;28;20237;-62
2023/05/02 04:45:35;;;;;;;1.87;1.40;;;11.00;99.90;;;;;;5072108;28;20563;-61
2023/05/02 04:48:03;;;;;;;5.00;1.30;;;10.80;99.90;;;;;;5073986;28;20202;-61
2023/05/02 04:50:31;;;;;;;6.10;1.97;;;11.00;99.90;;;;;;5058820;28;20561;-61
2023/05/02 04:52:58;;;;;;;4.67;1.37;;;10.90;99.90;;;;;;5071333;28;20264;-61
2023/05/02 04:55:25;;;;;;;5.67;1.27;;;10.90;99.90;;;;;;5073611;28;20197;-61
2023/05/02 04:57:52;;;;;;;4.60;1.50;;;11.00;99.90;;;;;;5057296;28;20220;-61
2023/05/02 05:00:20;;;;;;;4.50;1.30;;;11.00;99.90;;;;;;5058546;28;20209;-61
2023/05/02 05:02:47;;;;;;;3.20;1.30;;;11.10;99.90;;;;;;5070462;28;20732;-61
2023/05/02 05:05:14;;;;;;;3.23;2.00;;;11.20;99.90;;;;;;5052177;28;20209;-62
2023/05/02 05:07:42;;;;;;;2.57;1.13;;;11.10;99.90;;;;;;5047841;28;20241;-61
2023/05/02 05:10:10;;;;;;;2.43;1.50;;;11.10;99.90;;;;;;5054063;28;20244;-63
2023/05/02 05:12:37;;;;;;;3.87;1.50;;;11.10;99.90;;;;;;5068105;28;20234;-62
2023/05/02 05:15:04;;;;;;;2.97;1.43;;;11.20;99.90;;;;;;5063985;28;21010;-62
2023/05/02 05:17:31;;;;;;;5.97;1.53;;;11.10;99.90;;;;;;5068051;28;20657;-62
2023/05/02 05:19:58;;;;;;;5.73;1.50;;;11.00;99.90;;;;;;5074301;28;20237;-62
2023/05/02 05:22:25;;;;;;;3.23;1.67;;;11.10;99.90;;;;;;5063987;28;20237;-62
2023/05/02 05:24:53;;;;;;;3.73;1.40;;;11.00;99.90;;;;;;5069781;28;20197;-62
2023/05/02 05:27:20;;;;;;;4.37;1.53;;;11.10;99.90;;;;;;5074627;28;20257;-62
2023/05/02 05:29:47;;;;;;;5.17;1.67;;;11.20;99.90;;;;;;5058163;28;20201;-62
2023/05/02 05:32:14;;;;;;;5.13;1.70;;;11.10;99.90;;;;;;5049391;28;20198;-61
2023/05/02 05:34:41;;;;;;;4.03;1.83;;;11.20;99.90;;;;;;5067632;28;20679;-63
2023/05/02 05:37:08;;;;;;;3.07;1.50;;;11.30;99.90;;;;;;5044405;28;20203;-61
2023/05/02 05:39:35;;;;;;;4.60;1.77;;;11.10;99.90;;;;;;5028567;28;20210;-62
2023/05/02 05:42:02;;;;;;;4.97;1.60;;;11.00;99.90;;;;;;5068774;28;20304;-61
2023/05/02 05:44:30;;;;;;;1.87;1.30;;;10.90;99.90;;;;;;5044411;28;20251;-61
2023/05/02 05:46:57;;;;;;;2.17;1.90;;;11.00;99.90;;;;;;4712552;28;9999760;-62
2023/05/02 05:49:24;;;;;;;2.87;1.47;;;11.20;99.90;;;;;;5050202;28;20205;-62
2023/05/02 05:51:51;;;;;;;4.97;1.47;;;11.00;99.90;;;;;;5063189;28;20228;-62
2023/05/02 05:54:18;;;;;;;4.03;1.87;;;10.90;99.90;;;;;;5073417;28;20684;-62
2023/05/02 05:56:45;;;;;;;7.00;1.70;;;10.90;99.90;;;;;;5078584;28;20207;-62
2023/05/02 05:59:12;;;;;;;2.47;1.30;;;10.90;99.90;;;;;;5078247;28;20636;-62
2023/05/02 06:01:39;;;;;;;4.83;1.27;;;11.00;99.90;;;;;;5072265;28;21143;-62
2023/05/02 06:04:06;;;;;;;6.10;1.53;;;11.00;99.90;;;;;;5072137;28;20229;-62
2023/05/02 06:06:34;;;;;;;4.63;1.40;;;11.00;99.90;;;;;;5078489;28;20674;-62
2023/05/02 06:09:01;;;;;;;4.77;1.40;;;11.20;99.90;;;;;;5077736;28;20285;-62
2023/05/02 06:11:28;;;;;;;4.80;1.70;;;11.20;99.90;;;;;;5078917;28;20286;-62
2023/05/02 06:13:55;;;;;;;2.80;1.60;;;11.30;99.90;;;;;;5077535;28;20322;-62
2023/05/02 06:16:22;;;;;;;4.77;1.60;;;11.20;99.90;;;;;;5077688;28;22587;-61
2023/05/02 06:18:50;;;;;;;2.87;1.30;;;11.00;99.90;;;;;;5074291;28;20725;-61
2023/05/02 06:21:17;;;;;;;6.50;1.90;;;10.90;99.90;;;;;;5075638;28;20225;-61
2023/05/02 06:23:44;;;;;;;6.23;2.20;;;10.90;99.90;;;;;;5075553;28;20219;-62
2023/05/02 06:26:11;;;;;;;5.07;1.77;;;11.00;99.90;;;;;;5060452;28;20213;-62
2023/05/02 06:28:38;;;;;;;7.73;1.87;;;10.80;99.90;;;;;;5078170;28;20208;-61
2023/05/02 06:31:05;;;;;;;4.80;1.97;;;11.00;99.90;;;;;;5060421;28;20196;-61
2023/05/02 06:33:33;;;;;;;6.37;1.93;;;11.10;99.90;;;;;;5076041;28;20292;-61
2023/05/02 06:36:00;;;;;;;5.43;2.20;;;11.30;99.90;;;;;;5072474;28;20195;-61
2023/05/02 06:38:28;;;;;;;4.87;2.10;;;11.20;99.90;;;;;;5073488;28;20206;-61
2023/05/02 06:40:55;;;;;;;5.00;1.67;;;11.10;99.90;;;;;;5058472;28;20202;-66
2023/05/02 06:43:22;;;;;;;5.13;2.27;;;11.10;99.90;;;;;;5076089;28;20977;-63
2023/05/02 06:45:53;;;;;;;6.10;2.00;;;11.20;99.90;;;;;;5077764;28;20519;-63
2023/05/02 06:48:20;;;;;;;13.30;2.43;;;11.00;99.90;;;;;;5076494;28;20304;-61
2023/05/02 06:50:48;;;;;;;7.93;2.23;;;10.90;99.90;;;;;;5060986;28;20251;-61
2023/05/02 06:53:15;;;;;;;8.13;2.50;;;10.70;99.90;;;;;;5074157;28;20733;-61
2023/05/02 06:55:44;;;;;;;10.73;2.30;;;11.00;99.90;;;;;;5042817;28;20733;-61
2023/05/02 06:58:11;;;;;;;10.17;2.27;;;10.80;99.90;;;;;;5076683;28;20233;-61
2023/05/02 07:00:38;;;;;;;10.53;3.47;;;10.90;99.90;;;;;;5076460;28;20564;-61
2023/05/02 07:03:05;;;;;;;10.60;2.53;;;10.90;99.90;;;;;;5037244;28;20212;-61
2023/05/02 07:05:32;;;;;;;11.17;2.60;;;10.80;99.90;;;;;;5072346;28;20208;-61
2023/05/02 07:07:59;;;;;;;5.90;2.33;;;10.90;99.90;;;;;;5049618;28;20243;-61
2023/05/02 07:10:26;;;;;;;8.13;2.57;;;11.00;99.90;;;;;;5077263;28;20282;-61
2023/05/02 07:12:53;;;;;;;6.30;2.27;;;11.00;99.90;;;;;;5041994;28;20235;-63
2023/05/02 07:15:20;;;;;;;6.27;2.23;;;10.90;99.90;;;;;;5080246;28;20891;-62
2023/05/02 07:17:48;;;;;;;6.53;2.83;;;11.00;99.90;;;;;;5073093;28;20327;-63
2023/05/02 07:20:15;;;;;;;8.10;2.40;;;10.80;99.90;;;;;;5072809;28;20680;-61
2023/05/02 07:22:42;;;;;;;8.00;2.50;;;10.70;99.90;;;;;;5073723;28;20212;-63
2023/05/02 07:25:09;;;;;;;8.33;2.27;;;10.90;99.90;;;;;;5074225;28;20275;-61
2023/05/02 07:27:36;;;;;;;8.93;2.47;;;10.70;99.90;;;;;;5072874;28;20270;-64
2023/05/02 07:30:05;;;;;;;6.37;1.77;;;10.50;99.90;;;;;;5077608;28;20228;-61
2023/05/02 07:32:32;;;;;;;8.70;2.33;;;10.70;99.90;;;;;;5075814;28;20208;-64
2023/05/02 07:35:00;;;;;;;9.20;2.43;;;10.70;99.90;;;;;;5075474;28;20263;-61
2023/05/02 07:37:33;;;;;;;6.33;2.23;;;10.70;99.90;;;;;;5076398;28;20195;-61
2023/05/02 07:40:00;;;;;;;8.93;2.33;;;10.60;99.90;;;;;;5057839;28;20199;-61
2023/05/02 07:42:29;;;;;;;6.03;2.33;;;10.70;99.90;;;;;;5076120;28;20203;-61
2023/05/02 07:44:57;;;;;;;8.57;2.37;;;10.70;99.90;;;;;;5076988;28;20244;-61
2023/05/02 07:47:28;;;;;;;5.07;2.07;;;10.50;99.90;;;;;;5073631;28;20261;-61
2023/05/02 07:49:55;;;;;;;15.03;2.57;;;10.50;99.90;;;;;;5076651;28;20796;-61
2023/05/02 07:52:22;;;;;;;5.83;1.90;;;10.70;99.90;;;;;;5070057;28;20563;-61
2023/05/02 07:54:50;;;;;;;9.07;1.87;;;10.80;99.90;;;;;;5056346;28;20630;-61
2023/05/02 07:57:17;;;;;;;7.23;2.10;;;10.80;99.90;;;;;;5077495;28;20283;-62
2023/05/02 07:59:44;;;;;;;8.67;2.00;;;10.90;99.90;;;;;;5074972;28;20272;-61
2023/05/02 08:02:12;;;;;;;8.77;2.10;;;11.00;99.90;;;;;;5058182;28;20203;-61
2023/05/02 08:04:40;;;;;;;6.70;1.90;;;11.10;99.90;;;;;;5074961;28;20726;-61
2023/05/02 08:07:07;;;;;;;12.53;2.20;;;11.20;99.90;;;;;;5072831;28;20305;-61
2023/05/02 08:09:34;;;;;;;5.67;1.50;;;11.20;99.90;;;;;;5076188;28;20717;-63
2023/05/02 08:12:02;;;;;;;4.10;1.53;;;11.50;99.90;;;;;;5060099;28;20204;-62
2023/05/02 08:14:29;;;;;;;3.00;2.10;;;11.40;99.90;;;;;;5078547;28;20862;-61
2023/05/02 08:16:57;;;;;;;8.07;1.83;;;11.60;99.90;;;;;;5073087;28;20237;-61
2023/05/02 08:19:25;;;;;;;5.10;2.20;;;11.60;99.90;;;;;;5068078;28;21189;-65
2023/05/02 08:21:55;;;;;;;6.17;1.67;;;11.90;99.90;;;;;;5059744;28;20198;-62
2023/05/02 08:24:22;;;;;;;8.13;2.20;;;12.20;99.90;;;;;;5041098;28;20301;-64
2023/05/02 08:26:49;;;;;;;3.90;1.67;;;12.30;99.90;;;;;;5059731;28;20273;-62
2023/05/02 08:29:16;;;;;;;5.13;1.50;;;13.10;99.90;;;;;;5076940;28;20202;-61
2023/05/02 08:31:43;;;;;;;3.37;1.40;;;13.30;99.90;;;;;;5078313;28;20553;-64
2023/05/02 08:34:10;;;;;;;6.70;1.97;;;12.50;99.90;;;;;;5058024;28;20642;-62
2023/05/02 08:36:37;;;;;;;6.63;1.50;;;12.40;99.90;;;;;;5076132;28;20655;-62
2023/05/02 08:39:06;;;;;;;5.23;1.63;;;12.10;99.90;;;;;;5060252;28;20231;-62
2023/05/02 08:41:34;;;;;;;6.30;1.97;;;11.90;99.90;;;;;;5057193;28;20210;-62
2023/05/02 08:44:02;;;;;;;4.57;1.40;;;11.90;99.90;;;;;;5073972;28;20204;-61
2023/05/02 08:46:31;;;;;;;6.13;3.10;;;12.20;99.90;;;;;;5061649;28;20211;-63
2023/05/02 08:48:58;;;;;;;4.40;1.43;;;12.10;99.90;;;;;;5075342;28;20218;-62
2023/05/02 08:51:27;;;;;;;3.27;1.87;;;12.30;99.90;;;;;;5072445;28;20209;-65
2023/05/02 08:53:56;;;;;;;6.90;1.87;;;12.10;99.90;;;;;;5074152;28;20216;-64
2023/05/02 08:56:24;;;;;;;3.07;1.50;;;12.10;99.90;;;;;;5075862;28;20203;-62
2023/05/02 08:58:51;;;;;;;3.00;1.60;;;12.70;99.90;;;;;;5075326;28;20248;-62
2023/05/02 09:01:22;;;;;;;6.03;2.03;;;12.70;99.90;;;;;;5056846;28;20284;-62
2023/05/02 09:03:49;;;;;;;5.77;2.33;;;12.70;99.90;;;;;;5072605;28;20743;-62
2023/05/02 09:06:21;;;;;;;8.17;1.67;;;12.60;99.90;;;;;;5078229;28;20223;-62
2023/05/02 09:08:51;;;;;;;8.27;1.90;;;12.30;99.90;;;;;;5076914;28;20227;-62
2023/05/02 09:11:19;;;;;;;4.47;1.83;;;12.30;99.90;;;;;;5077740;28;20213;-61
2023/05/02 09:13:50;;;;;;;6.07;2.00;;;12.80;99.90;;;;;;5079777;28;20230;-62
2023/05/02 09:16:24;;;;;;;10.90;2.27;;;12.80;99.90;;;;;;5082365;28;20194;-61
2023/05/02 09:18:56;;;;;;;5.27;1.73;;;13.10;99.90;;;;;;5079974;28;20275;-61
2023/05/02 09:21:33;;;;;;;5.73;1.73;;;13.10;99.90;;;;;;5082152;28;20290;-61
2023/05/02 09:24:02;;;;;;;6.53;2.20;;;12.70;99.90;;;;;;5081337;28;20270;-62
2023/05/02 09:26:32;;;;;;;5.13;2.10;;;12.60;99.90;;;;;;5081463;28;20203;-62
2023/05/02 09:29:04;;;;;;;6.43;2.10;;;12.70;99.90;;;;;;5083370;28;20229;-64
2023/05/02 09:31:35;;;;;;;4.13;2.20;;;13.10;99.90;;;;;;5083005;28;20546;-63
2023/05/02 09:34:22;;;;;;;4.80;2.70;;;12.80;99.90;;;;;;5077827;28;22483;-64
2023/05/02 09:36:52;;;;;;;3.13;2.10;;;12.70;99.90;;;;;;5071752;28;21301;-63
2023/05/02 09:39:24;;;;;;;9.10;1.77;;;12.40;99.90;;;;;;5078175;28;20741;-63
2023/05/02 09:41:52;;;;;;;6.33;1.87;;;12.00;99.90;;;;;;5060382;28;20288;-63
2023/05/02 09:44:26;;;;;;;4.47;1.77;;;11.80;99.90;;;;;;5078829;28;20198;-63
2023/05/02 09:46:56;;;;;;;6.60;1.67;;;11.80;99.90;;;;;;5076902;28;20339;-64
2023/05/02 09:49:45;;;;;;;6.77;1.70;;;12.20;99.90;;;;;;5059905;28;20647;-63
2023/05/02 09:52:14;;;;;;;4.87;1.80;;;12.60;99.90;;;;;;5075051;28;20208;-66
2023/05/02 09:54:42;;;;;;;6.17;1.70;;;12.50;99.90;;;;;;5080263;28;20720;-63
2023/05/02 09:57:09;;;;;;;5.70;1.27;;;12.70;99.90;;;;;;5080416;28;20316;-63
2023/05/02 09:59:38;;;;;;;3.07;1.20;;;13.00;99.90;;;;;;5080050;28;20531;-63
2023/05/02 10:02:08;;;;;;;3.47;1.50;;;13.10;99.90;;;;;;5078917;28;20210;-63
2023/05/02 10:04:36;;;;;;;4.07;1.60;;;13.10;99.90;;;;;;5077143;28;20248;-63
2023/05/02 10:07:05;;;;;;;4.30;1.93;;;13.60;99.90;;;;;;5081233;28;20217;-62
2023/05/02 10:09:35;;;;;;;8.57;1.83;;;13.80;99.90;;;;;;5079967;28;20288;-64
2023/05/02 10:12:03;;;;;;;3.50;1.53;;;13.50;99.90;;;;;;5070209;28;20203;-67
2023/05/02 10:14:34;;;;;;;6.10;2.00;;;13.80;99.90;;;;;;5062762;28;20745;-62
2023/05/02 10:17:12;;;;;;;5.77;1.90;;;13.70;99.90;;;;;;5080845;28;20202;-63
2023/05/02 10:19:58;;;;;;;5.00;2.20;;;13.30;99.90;;;;;;5077924;28;20226;-62
2023/05/02 10:22:25;;;;;;;6.87;2.07;;;13.20;99.90;;;;;;5079840;28;20204;-62
2023/05/02 10:24:53;;;;;;;7.83;1.80;;;12.90;99.90;;;;;;5073932;28;20229;-62
2023/05/02 10:27:21;;;;;;;6.93;2.27;;;12.90;99.90;;;;;;5065579;28;20307;-62
2023/05/02 10:29:50;;;;;;;3.00;1.60;;;12.80;99.90;;;;;;5068838;28;20214;-62
2023/05/02 10:32:17;;;;;;;7.87;2.10;;;12.70;99.90;;;;;;5057429;28;20199;-62
2023/05/02 10:34:46;;;;;;;4.90;1.40;;;12.80;99.90;;;;;;5073821;28;20676;-62
2023/05/02 10:37:14;;;;;;;4.87;1.80;;;13.20;99.90;;;;;;5036861;28;20555;-62
2023/05/02 10:39:41;;;;;;;5.40;1.63;;;13.60;99.90;;;;;;5066618;28;20311;-62
2023/05/02 10:42:09;;;;;;;4.63;1.73;;;13.30;99.90;;;;;;5048991;28;20214;-62
2023/05/02 10:44:38;;;;;;;3.50;1.57;;;13.70;99.90;;;;;;5075201;28;20222;-62
2023/05/02 10:47:21;;;;;;;3.80;1.77;;;13.70;99.90;;;;;;5079251;28;20207;-62
2023/05/02 10:49:53;;;;;;;2.13;1.43;;;13.90;99.90;;;;;;5073139;28;20204;-66
2023/05/02 10:52:37;;;;;;;3.60;1.60;;;14.40;99.90;;;;;;5071252;28;20347;-62
2023/05/02 10:55:23;;;;;;;3.50;1.80;;;14.00;99.90;;;;;;5064406;28;20200;-62
2023/05/02 10:57:56;;;;;;;4.23;1.70;;;13.90;99.90;;;;;;5042018;28;20234;-63
2023/05/02 11:00:28;;;;;;;4.77;1.53;;;14.30;99.90;;;;;;5067988;28;20667;-62
2023/05/02 11:02:55;;;;;;;4.60;1.87;;;13.70;99.90;;;;;;5067082;28;20203;-62
2023/05/02 11:05:23;;;;;;;3.53;1.83;;;13.70;99.90;;;;;;5071159;28;20290;-63
2023/05/02 11:08:19;;;;;;;6.53;2.27;;;13.80;99.90;;;;;;5057729;28;20277;-64
2023/05/02 11:10:49;;;;;;;4.03;1.67;;;14.20;99.90;;;;;;5054938;28;20226;-65
2023/05/02 11:13:35;;;;;;;6.83;2.03;;;13.70;99.90;;;;;;5055298;28;20244;-62
2023/05/02 11:16:02;;;;;;;5.77;2.13;;;13.60;99.90;;;;;;5073689;28;20303;-62
2023/05/02 11:18:59;;;;;;;5.10;1.43;;;13.50;99.90;;;;;;5071830;28;20238;-62
2023/05/02 11:21:28;;;;;;;2.47;1.43;;;13.10;99.90;;;;;;5049415;28;20195;-63
2023/05/02 11:24:32;;;;;;;4.37;1.77;;;12.80;99.90;;;;;;5055576;28;20204;-61
2023/05/02 11:27:27;;;;;;;3.57;1.80;;;13.10;99.90;;;;;;5070461;28;20278;-63
2023/05/02 11:29:59;;;;;;;4.67;2.00;;;13.40;99.90;;;;;;5074478;28;20202;-63
2023/05/02 11:32:44;;;;;;;4.00;1.67;;;14.00;99.90;;;;;;5071403;28;20206;-64
2023/05/02 11:35:29;;;;;;;4.87;2.57;;;14.30;99.90;;;;;;5072831;28;20210;-63
2023/05/02 11:37:59;;;;;;;4.43;1.80;;;14.60;99.90;;;;;;5076304;28;20213;-64
2023/05/02 11:40:27;;;;;;;2.70;1.60;;;15.40;99.90;;;;;;5058708;28;20287;-63
2023/05/02 11:42:55;;;;;;;4.87;1.60;;;15.10;99.90;;;;;;5041850;28;20264;-64
2023/05/02 11:45:32;;;;;;;5.60;1.83;;;14.40;99.90;;;;;;5074561;28;20204;-64
2023/05/02 11:47:59;;;;;;;1.97;1.57;;;14.50;99.90;;;;;;5075745;28;20710;-63
2023/05/02 11:50:29;;;;;;;3.47;1.63;;;14.60;99.90;;;;;;5024599;28;20191;-65
2023/05/02 11:52:56;;;;;;;5.27;1.40;;;15.20;99.90;;;;;;5072422;28;20286;-61
2023/05/02 11:55:23;;;;;;;3.97;1.87;;;14.60;99.90;;;;;;5041713;28;20199;-62
2023/05/02 11:57:50;;;;;;;2.27;1.37;;;14.40;99.90;;;;;;5076532;28;21113;-61
2023/05/02 12:00:17;;;;;;;3.87;1.73;;;14.60;99.90;;;;;;5072314;28;20248;-62
2023/05/02 12:02:48;;;;;;;2.77;1.90;;;14.70;99.90;;;;;;5075384;28;20644;-63
2023/05/02 12:05:28;;;;;;;5.10;1.80;;;14.80;99.90;;;;;;5071533;28;20210;-62
2023/05/02 12:07:55;;;;;;;3.47;1.80;;;15.40;99.90;;;;;;5076340;28;20227;-62
2023/05/02 12:10:34;;;;;;;3.23;1.33;;;15.70;99.90;;;;;;5071067;28;20220;-62
2023/05/02 12:13:05;;;;;;;6.43;2.00;;;16.50;99.90;;;;;;5074358;28;20249;-69
2023/05/02 12:15:32;;;;;;;3.27;1.50;;;16.40;99.90;;;;;;5073243;28;20240;-66
2023/05/02 12:18:00;;;;;;;4.47;1.80;;;15.70;99.90;;;;;;5072349;28;20302;-61
2023/05/02 12:20:27;;;;;;;4.70;2.10;;;15.30;99.90;;;;;;5072363;28;20303;-64
2023/05/02 12:22:55;;;;;;;5.27;1.47;;;15.00;99.90;;;;;;5042216;28;20219;-62
2023/05/02 12:25:22;;;;;;;8.93;2.07;;;15.00;99.90;;;;;;5072361;28;20204;-63
2023/05/02 12:27:59;;;;;;;2.67;1.20;;;15.50;99.90;;;;;;5075112;28;20597;-63
2023/05/02 12:30:30;;;;;;;5.13;2.10;;;16.00;99.90;;;;;;5073389;28;20209;-62
2023/05/02 12:32:58;;;;;;;2.23;1.47;;;16.20;99.90;;;;;;5072356;28;20193;-62
2023/05/02 12:35:25;;;;;;;6.73;1.70;;;15.50;99.90;;;;;;5073580;28;20271;-61
2023/05/02 12:37:53;;;;;;;4.07;1.80;;;15.80;99.90;;;;;;5054585;28;20226;-62
2023/05/02 12:40:20;;;;;;;6.63;2.07;;;16.80;99.90;;;;;;5057271;28;20195;-62
2023/05/02 12:43:06;;;;;;;4.57;1.77;;;16.60;99.90;;;;;;5060593;28;20683;-62
2023/05/02 12:45:33;;;;;;;8.20;1.73;;;16.70;99.90;;;;;;5057811;28;20623;-62
2023/05/02 12:48:24;;;;;;;2.60;1.53;;;16.90;99.90;;;;;;5072651;28;20234;-62
2023/05/02 12:50:53;;;;;;;2.67;1.83;;;16.50;99.90;;;;;;5070982;28;20227;-62
2023/05/02 12:53:43;;;;;;;5.50;1.70;;;16.90;99.90;;;;;;5074453;28;20554;-61
2023/05/02 12:56:10;;;;;;;4.13;1.57;;;17.00;99.90;;;;;;5055121;28;20191;-62
2023/05/02 12:58:46;;;;;;;3.07;1.80;;;17.20;99.90;;;;;;5068037;28;20215;-62